Terminal Aerodrome Forecast
Issued by NWS Flagstaff, AZ

Home | Current Version | Previous Version | Text Only | Print | Product List | Glossary On
Versions: 1 2 3 4 5 6 7 8 9 10 11 12 13
349
FTUS45 KFGZ 061728
TAFINW
TAF
KINW 061728Z 0618/0718 23020G28KT P6SM SCT120 SCT250
     FM070300 21010KT P6SM SCT250
     FM071300 29005KT P6SM SCT030 SCT250=

USA.gov is the U.S. government's official web portal to all federal, state and local government web resources and services.